createdAt,value
2019-05-11T00:00:27.632Z,11.30
2019-05-11T00:01:27.625Z,11.27
2019-05-11T00:02:27.612Z,11.32
2019-05-11T00:03:27.590Z,11.27
2019-05-11T00:04:27.585Z,11.25
2019-05-11T00:05:27.572Z,11.25
2019-05-11T00:06:27.603Z,11.23
2019-05-11T00:07:27.551Z,11.08
2019-05-11T00:08:27.543Z,11.02
2019-05-11T00:09:27.551Z,10.97
2019-05-11T00:10:27.513Z,10.99
2019-05-11T00:11:27.572Z,10.97
2019-05-11T00:12:27.489Z,10.78
2019-05-11T00:13:27.490Z,10.84
2019-05-11T00:14:27.472Z,10.76
2019-05-11T00:15:27.460Z,10.74
2019-05-11T00:16:27.471Z,10.76
2019-05-11T00:17:27.429Z,10.71
2019-05-11T00:18:27.425Z,10.59
2019-05-11T00:19:27.440Z,10.54
2019-05-11T00:20:27.418Z,10.40
2019-05-11T00:21:27.414Z,10.53
2019-05-11T00:22:27.369Z,10.49
2019-05-11T00:23:27.380Z,10.44
2019-05-11T00:24:29.545Z,10.35
2019-05-11T00:25:27.347Z,10.33
2019-05-11T00:26:27.334Z,10.42
2019-05-11T00:27:27.333Z,10.37
2019-05-11T00:28:27.362Z,10.46
2019-05-11T00:29:27.360Z,10.42
2019-05-11T00:30:27.292Z,10.37
2019-05-11T00:31:27.325Z,10.40
2019-05-11T00:32:27.287Z,10.49
2019-05-11T00:33:27.249Z,10.38
2019-05-11T00:34:27.237Z,10.46
2019-05-11T00:35:27.329Z,10.31
2019-05-11T00:36:27.291Z,10.37
2019-05-11T00:37:27.261Z,10.35
2019-05-11T00:38:28.094Z,10.31
2019-05-11T00:39:27.250Z,10.41
2019-05-11T00:40:27.214Z,10.41
2019-05-11T00:41:27.174Z,10.35
2019-05-11T00:42:27.185Z,10.35
2019-05-11T00:43:27.185Z,10.44
2019-05-11T00:44:27.155Z,10.46
2019-05-11T00:45:27.196Z,10.46
2019-05-11T00:46:27.113Z,10.46
2019-05-11T00:47:27.133Z,10.61
2019-05-11T00:48:27.104Z,10.59
2019-05-11T00:49:27.115Z,10.59
2019-05-11T00:50:38.646Z,10.63
2019-05-11T00:51:28.060Z,10.56
2019-05-11T00:52:27.041Z,10.59
2019-05-11T00:53:27.067Z,10.64
2019-05-11T00:54:28.871Z,10.63
2019-05-11T00:55:27.051Z,10.64
2019-05-11T00:56:27.013Z,10.63
2019-05-11T00:57:26.989Z,10.61
2019-05-11T00:58:26.980Z,10.59
2019-05-11T00:59:27.020Z,10.56
2019-05-11T01:00:26.998Z,10.51
2019-05-11T01:01:26.958Z,10.49
2019-05-11T01:02:26.934Z,10.48
2019-05-11T01:03:26.915Z,10.48
2019-05-11T01:04:26.950Z,10.48
2019-05-11T01:05:26.950Z,10.49
2019-05-11T01:06:26.924Z,10.53
2019-05-11T01:07:26.889Z,10.53
2019-05-11T01:08:26.882Z,10.48
2019-05-11T01:09:26.866Z,10.51
2019-05-11T01:10:40.984Z,10.59
2019-05-11T01:11:27.882Z,10.54
2019-05-11T01:12:26.822Z,10.67
2019-05-11T01:13:26.824Z,10.69
2019-05-11T01:14:26.802Z,10.64
2019-05-11T01:15:26.793Z,10.69
2019-05-11T01:16:26.785Z,10.63
2019-05-11T01:17:26.808Z,10.60
2019-05-11T01:18:26.811Z,10.63
2019-05-11T01:19:26.767Z,10.59
2019-05-11T01:20:26.738Z,10.51
2019-05-11T01:21:26.729Z,10.53
2019-05-11T01:22:27.073Z,10.48
2019-05-11T01:23:26.705Z,10.48
2019-05-11T01:24:26.702Z,10.40
2019-05-11T01:25:26.673Z,10.31
2019-05-11T01:26:26.679Z,10.34
2019-05-11T01:27:26.658Z,10.34
2019-05-11T01:28:26.693Z,10.25
2019-05-11T01:29:26.636Z,10.20
2019-05-11T01:30:26.622Z,10.10
2019-05-11T01:31:26.611Z,10.10
2019-05-11T01:32:26.609Z,10.02
2019-05-11T01:33:26.591Z,10.04
2019-05-11T01:34:26.607Z,10.02
2019-05-11T01:35:26.568Z,9.98
2019-05-11T01:36:26.552Z,9.95
2019-05-11T01:37:26.561Z,9.89
2019-05-11T01:38:26.566Z,9.92
2019-05-11T01:39:26.539Z,9.79
2019-05-11T01:40:26.525Z,9.77
2019-05-11T01:41:26.506Z,9.69
2019-05-11T01:42:26.535Z,9.74
2019-05-11T01:43:26.484Z,9.74
2019-05-11T01:44:26.482Z,9.59
2019-05-11T01:45:26.473Z,9.62
2019-05-11T01:46:26.450Z,9.64
2019-05-11T01:47:26.444Z,9.65
2019-05-11T01:48:26.481Z,9.61
2019-05-11T01:49:26.421Z,9.58
2019-05-11T01:50:26.408Z,9.59
2019-05-11T01:51:26.390Z,9.48
2019-05-11T01:52:26.387Z,9.54
2019-05-11T01:53:26.371Z,9.47
2019-05-11T01:54:28.342Z,9.39
2019-05-11T01:55:26.361Z,9.46
2019-05-11T01:56:26.348Z,9.43
2019-05-11T01:57:26.330Z,9.41
2019-05-11T01:58:26.328Z,9.37
2019-05-11T01:59:26.305Z,9.29
2019-05-11T02:00:26.309Z,9.36
2019-05-11T02:01:26.290Z,9.32
2019-05-11T02:02:26.272Z,9.32
2019-05-11T02:03:26.260Z,9.28
2019-05-11T02:04:26.253Z,9.26
2019-05-11T02:05:26.263Z,9.26
2019-05-11T02:06:26.266Z,9.23
2019-05-11T02:07:26.238Z,9.26
2019-05-11T02:08:26.213Z,9.28
2019-05-11T02:09:26.196Z,9.29
2019-05-11T02:10:26.182Z,9.32
2019-05-11T02:11:26.177Z,9.31
2019-05-11T02:12:26.169Z,9.31
2019-05-11T02:13:26.150Z,9.29
2019-05-11T02:14:26.142Z,9.31
2019-05-11T02:15:26.124Z,9.22
2019-05-11T02:16:26.122Z,9.29
2019-05-11T02:17:26.118Z,9.29
2019-05-11T02:18:26.120Z,9.29
2019-05-11T02:19:26.089Z,9.29
2019-05-11T02:20:26.065Z,9.28
2019-05-11T02:21:26.063Z,9.40
2019-05-11T02:22:26.064Z,9.28
2019-05-11T02:23:26.190Z,9.25
2019-05-11T02:24:26.039Z,9.23
2019-05-11T02:25:26.015Z,9.29
2019-05-11T02:26:26.000Z,9.25
2019-05-11T02:27:26.009Z,9.39
2019-05-11T02:28:25.992Z,9.40
2019-05-11T02:29:26.001Z,9.40
2019-05-11T02:30:26.010Z,9.37
2019-05-11T02:31:25.953Z,9.31
2019-05-11T02:32:25.942Z,9.28
2019-05-11T02:33:25.957Z,9.31
2019-05-11T02:34:25.934Z,9.28
2019-05-11T02:35:25.928Z,9.32
2019-05-11T02:36:25.949Z,9.28
2019-05-11T02:37:25.893Z,9.31
2019-05-11T02:38:25.876Z,9.34
2019-05-11T02:39:25.878Z,9.23
2019-05-11T02:40:25.885Z,9.31
2019-05-11T02:41:36.031Z,9.29
2019-05-11T02:42:26.857Z,9.29
2019-05-11T02:43:25.818Z,9.29
2019-05-11T02:44:25.816Z,9.22
2019-05-11T02:45:25.804Z,9.19
2019-05-11T02:46:25.828Z,9.25
2019-05-11T02:47:25.806Z,9.18
2019-05-11T02:48:25.765Z,9.19
2019-05-11T02:49:28.103Z,9.25
2019-05-11T02:50:27.632Z,9.21
2019-05-11T02:51:25.742Z,9.23
2019-05-11T02:52:25.742Z,9.18
2019-05-11T02:53:25.739Z,9.19
2019-05-11T02:54:25.704Z,9.25
2019-05-11T02:55:25.708Z,9.19
2019-05-11T02:56:25.686Z,9.26
2019-05-11T02:57:25.672Z,9.26
2019-05-11T02:58:25.658Z,9.19
2019-05-11T02:59:29.703Z,9.21
2019-05-11T03:00:25.627Z,9.34
2019-05-11T03:01:25.655Z,9.23
2019-05-11T03:02:25.623Z,9.21
2019-05-11T03:03:25.610Z,9.22
2019-05-11T03:04:25.600Z,9.22
2019-05-11T03:05:25.584Z,9.22
2019-05-11T03:06:25.599Z,9.18
2019-05-11T03:07:25.561Z,9.23
2019-05-11T03:08:25.573Z,9.23
2019-05-11T03:09:25.576Z,9.26
2019-05-11T03:10:25.543Z,9.26
2019-05-11T03:11:25.516Z,9.29
2019-05-11T03:12:25.497Z,9.29
2019-05-11T03:13:25.498Z,9.26
2019-05-11T03:14:25.665Z,9.37
2019-05-11T03:15:25.492Z,9.36
2019-05-11T03:16:25.447Z,9.37
2019-05-11T03:17:25.464Z,9.36
2019-05-11T03:18:25.439Z,9.29
2019-05-11T03:19:25.428Z,9.31
2019-05-11T03:20:25.424Z,9.46
2019-05-11T03:21:25.637Z,9.40
2019-05-11T03:22:25.408Z,9.36
2019-05-11T03:23:25.379Z,9.37
2019-05-11T03:24:25.365Z,9.36
2019-05-11T03:25:25.364Z,9.29
2019-05-11T03:26:25.346Z,9.26
2019-05-11T03:27:25.378Z,9.39
2019-05-11T03:28:25.326Z,9.25
2019-05-11T03:29:25.319Z,9.26
2019-05-11T03:30:25.321Z,9.29
2019-05-11T03:31:25.322Z,9.32
2019-05-11T03:32:25.331Z,9.39
2019-05-11T03:33:25.272Z,9.25
2019-05-11T03:34:25.258Z,9.34
2019-05-11T03:35:25.317Z,9.40
2019-05-11T03:36:25.327Z,9.40
2019-05-11T03:37:25.298Z,9.44
2019-05-11T03:38:25.277Z,9.50
2019-05-11T03:39:25.224Z,9.43
2019-05-11T03:40:25.285Z,9.59
2019-05-11T03:41:25.233Z,9.56
2019-05-11T03:42:25.195Z,9.56
2019-05-11T03:43:25.247Z,9.59
2019-05-11T03:44:25.204Z,9.61
2019-05-11T03:45:25.141Z,9.62
2019-05-11T03:46:25.172Z,9.62
2019-05-11T03:47:25.174Z,9.61
2019-05-11T03:48:25.137Z,9.59
2019-05-11T03:49:25.165Z,9.66
2019-05-11T03:50:25.104Z,9.61
2019-05-11T03:51:25.064Z,9.61
2019-05-11T03:52:25.067Z,9.62
2019-05-11T03:53:25.096Z,9.65
2019-05-11T03:54:25.235Z,9.61
2019-05-11T03:55:25.033Z,9.66
2019-05-11T03:56:25.083Z,9.65
2019-05-11T03:57:25.014Z,9.59
2019-05-11T03:58:26.610Z,9.69
2019-05-11T03:59:24.992Z,9.68
2019-05-11T04:00:24.961Z,9.72
2019-05-11T04:01:24.960Z,9.72
2019-05-11T04:02:24.997Z,9.80
2019-05-11T04:03:24.940Z,9.73
2019-05-11T04:04:24.946Z,9.77
2019-05-11T04:05:24.913Z,9.86
2019-05-11T04:06:24.912Z,9.91
2019-05-11T04:07:24.899Z,9.89
2019-05-11T04:08:24.936Z,9.89
2019-05-11T04:09:24.877Z,9.95
2019-05-11T04:10:25.693Z,9.91
2019-05-11T04:11:24.879Z,9.99
2019-05-11T04:12:34.832Z,10.02
2019-05-11T04:13:25.830Z,10.12
2019-05-11T04:14:24.808Z,10.10
2019-05-11T04:15:24.805Z,10.04
2019-05-11T04:16:24.792Z,10.10
2019-05-11T04:17:24.795Z,10.05
2019-05-11T04:18:24.795Z,10.15
2019-05-11T04:19:24.783Z,10.04
2019-05-11T04:20:24.750Z,10.12
2019-05-11T04:21:24.768Z,10.20
2019-05-11T04:22:24.753Z,10.12
2019-05-11T04:23:24.936Z,10.20
2019-05-11T04:24:24.734Z,10.23
2019-05-11T04:25:24.704Z,10.33
2019-05-11T04:26:24.687Z,10.26
2019-05-11T04:27:24.681Z,10.28
2019-05-11T04:28:24.698Z,10.33
2019-05-11T04:29:24.662Z,10.35
2019-05-11T04:30:24.644Z,10.42
2019-05-11T04:31:24.635Z,10.44
2019-05-11T04:32:24.637Z,10.46
2019-05-11T04:33:24.619Z,10.57
2019-05-11T04:34:24.643Z,10.64
2019-05-11T04:35:24.590Z,10.69
2019-05-11T04:36:24.572Z,10.72
2019-05-11T04:37:24.569Z,10.64
2019-05-11T04:38:24.570Z,10.71
2019-05-11T04:39:24.545Z,10.69
2019-05-11T04:40:24.541Z,10.74
2019-05-11T04:41:24.519Z,10.75
2019-05-11T04:42:24.518Z,10.78
2019-05-11T04:43:24.507Z,10.81
2019-05-11T04:44:24.491Z,10.84
2019-05-11T04:45:24.489Z,10.79
2019-05-11T04:46:24.511Z,10.76
2019-05-11T04:47:24.470Z,10.78
2019-05-11T04:48:24.444Z,10.71
2019-05-11T04:49:24.429Z,10.60
2019-05-11T04:50:24.506Z,10.68
2019-05-11T04:51:24.410Z,10.63
2019-05-11T04:52:24.414Z,10.64
2019-05-11T04:53:24.414Z,10.67
2019-05-11T04:54:24.389Z,10.68
2019-05-11T04:55:24.368Z,10.57
2019-05-11T04:56:24.381Z,10.69
2019-05-11T04:57:24.346Z,10.74
2019-05-11T04:58:24.363Z,10.76
2019-05-11T04:59:24.327Z,10.82
2019-05-11T05:00:31.098Z,10.96
2019-05-11T05:01:24.310Z,11.02
2019-05-11T05:02:27.169Z,11.18
2019-05-11T05:03:39.736Z,11.25
2019-05-11T05:04:25.284Z,11.32
2019-05-11T05:05:24.255Z,11.47
2019-05-11T05:06:24.774Z,11.51
2019-05-11T05:07:24.224Z,11.65
2019-05-11T05:08:26.502Z,11.68
2019-05-11T05:09:24.311Z,11.63
2019-05-11T05:10:24.190Z,11.52
2019-05-11T05:11:24.193Z,11.45
2019-05-11T05:12:24.176Z,11.54
2019-05-11T05:13:29.382Z,11.55
2019-05-11T05:14:25.163Z,11.62
2019-05-11T05:15:24.150Z,11.66
2019-05-11T05:16:24.154Z,11.66
2019-05-11T05:17:24.115Z,11.72
2019-05-11T05:18:24.136Z,11.88
2019-05-11T05:19:24.098Z,11.86
2019-05-11T05:20:24.089Z,11.88
2019-05-11T05:21:24.329Z,11.99
2019-05-11T05:22:27.774Z,12.04
2019-05-11T05:23:24.097Z,12.03
2019-05-11T05:24:24.104Z,12.12
2019-05-11T05:25:24.024Z,12.09
2019-05-11T05:26:24.039Z,12.25
2019-05-11T05:27:24.012Z,12.25
2019-05-11T05:28:24.030Z,12.37
2019-05-11T05:29:24.041Z,12.39
2019-05-11T05:30:23.989Z,12.46
2019-05-11T05:31:23.996Z,12.60
2019-05-11T05:32:23.959Z,12.61
2019-05-11T05:33:23.940Z,12.62
2019-05-11T05:34:23.934Z,12.67
2019-05-11T05:35:23.976Z,12.61
2019-05-11T05:36:23.916Z,12.61
2019-05-11T05:37:23.906Z,12.64
2019-05-11T05:38:23.893Z,12.55
2019-05-11T05:39:23.878Z,12.47
2019-05-11T05:40:23.870Z,12.54
2019-05-11T05:41:23.964Z,12.53
2019-05-11T05:42:23.848Z,12.65
2019-05-11T05:43:28.006Z,12.75
2019-05-11T05:44:27.439Z,12.76
2019-05-11T05:45:23.806Z,12.97
2019-05-11T05:46:23.813Z,13.04
2019-05-11T05:47:23.804Z,13.28
2019-05-11T05:48:23.857Z,13.44
2019-05-11T05:49:23.788Z,13.47
2019-05-11T05:50:23.811Z,13.49
2019-05-11T05:51:23.802Z,13.57
2019-05-11T05:52:23.729Z,13.65
2019-05-11T05:53:23.726Z,13.68
2019-05-11T05:54:23.710Z,13.81
2019-05-11T05:55:23.702Z,13.99
2019-05-11T05:56:23.694Z,14.10
2019-05-11T05:57:23.690Z,14.11
2019-05-11T05:58:23.665Z,14.23
2019-05-11T05:59:23.670Z,14.23
2019-05-11T06:00:23.658Z,14.17
2019-05-11T06:01:23.659Z,14.18
2019-05-11T06:02:23.646Z,14.15
2019-05-11T06:03:23.605Z,14.20
2019-05-11T06:04:23.610Z,14.18
2019-05-11T06:05:23.585Z,14.30
2019-05-11T06:06:23.640Z,14.32
2019-05-11T06:07:23.576Z,14.41
2019-05-11T06:08:23.574Z,14.44
2019-05-11T06:09:23.539Z,14.51
2019-05-11T06:10:23.544Z,14.55
2019-05-11T06:11:23.521Z,14.62
2019-05-11T06:12:23.511Z,14.60
2019-05-11T06:13:23.509Z,14.55
2019-05-11T06:14:23.503Z,14.40
2019-05-11T06:15:23.480Z,14.37
2019-05-11T06:16:23.470Z,14.43
2019-05-11T06:17:23.508Z,14.47
2019-05-11T06:18:23.464Z,14.72
2019-05-11T06:19:23.480Z,14.81
2019-05-11T06:20:23.424Z,15.07
2019-05-11T06:21:23.424Z,15.46
2019-05-11T06:22:23.419Z,15.82
2019-05-11T06:23:23.399Z,15.94
2019-05-11T06:24:23.574Z,16.16
2019-05-11T06:25:23.378Z,16.38
2019-05-11T06:26:23.368Z,16.33
2019-05-11T06:27:23.339Z,16.04
2019-05-11T06:28:23.334Z,15.80
2019-05-11T06:29:23.345Z,15.82
2019-05-11T06:30:23.319Z,15.72
2019-05-11T06:31:23.309Z,15.70
2019-05-11T06:32:23.288Z,15.86
2019-05-11T06:33:23.298Z,16.02
2019-05-11T06:34:23.278Z,16.36
2019-05-11T06:35:23.269Z,16.46
2019-05-11T06:36:23.237Z,16.64
2019-05-11T06:37:23.273Z,16.93
2019-05-11T06:38:23.225Z,18.25
2019-05-11T06:39:23.231Z,19.29
2019-05-11T06:40:23.209Z,20.40
2019-05-11T06:41:23.200Z,21.32
2019-05-11T06:42:23.179Z,21.61
2019-05-11T06:43:23.168Z,22.20
2019-05-11T06:44:23.159Z,22.55
2019-05-11T06:45:23.186Z,23.13
2019-05-11T06:46:23.134Z,23.78
2019-05-11T06:47:23.118Z,24.24
2019-05-11T06:48:23.110Z,24.24
2019-05-11T06:49:23.172Z,24.50
2019-05-11T06:50:23.111Z,25.18
2019-05-11T06:51:24.157Z,25.68
2019-05-11T06:52:23.079Z,26.16
2019-05-11T06:53:23.072Z,26.10
2019-05-11T06:54:23.043Z,26.03
2019-05-11T06:55:23.380Z,25.98
2019-05-11T06:56:23.033Z,25.23
2019-05-11T06:57:23.011Z,24.84
2019-05-11T06:58:23.000Z,24.66
2019-05-11T06:59:22.990Z,24.89
2019-05-11T07:00:23.038Z,25.33
2019-05-11T07:01:22.977Z,25.38
2019-05-11T07:02:22.950Z,25.65
2019-05-11T07:03:22.944Z,25.84
2019-05-11T07:04:22.929Z,25.62
2019-05-11T07:05:22.924Z,24.96
2019-05-11T07:06:26.181Z,24.89
2019-05-11T07:07:23.904Z,25.31
2019-05-11T07:08:22.892Z,25.63
2019-05-11T07:09:22.876Z,25.41
2019-05-11T07:10:22.878Z,25.23
2019-05-11T07:11:22.878Z,25.18
2019-05-11T07:12:22.862Z,25.11
2019-05-11T07:13:22.831Z,25.41
2019-05-11T07:14:22.821Z,25.85
2019-05-11T07:15:22.826Z,26.02
2019-05-11T07:16:22.799Z,26.41
2019-05-11T07:17:22.808Z,26.51
2019-05-11T07:18:22.836Z,26.03
2019-05-11T07:19:22.759Z,26.13
2019-05-11T07:20:22.753Z,26.36
2019-05-11T07:21:22.748Z,26.31
2019-05-11T07:22:22.746Z,26.06
2019-05-11T07:23:22.726Z,26.19
2019-05-11T07:24:22.796Z,26.21
2019-05-11T07:25:22.804Z,26.31
2019-05-11T07:26:22.697Z,25.99
2019-05-11T07:27:22.688Z,26.41
2019-05-11T07:28:22.677Z,27.12
2019-05-11T07:29:22.697Z,27.89
2019-05-11T07:30:22.651Z,27.60
2019-05-11T07:31:22.632Z,28.41
2019-05-11T07:32:25.946Z,29.54
2019-05-11T07:33:22.612Z,29.91
2019-05-11T07:34:22.619Z,29.78
2019-05-11T07:35:22.659Z,29.66
2019-05-11T07:36:22.584Z,30.18
2019-05-11T07:37:24.340Z,29.78
2019-05-11T07:38:22.570Z,29.60
2019-05-11T07:39:22.583Z,30.53
2019-05-11T07:40:22.582Z,31.46
2019-05-11T07:41:22.536Z,32.46
2019-05-11T07:42:22.524Z,32.15
2019-05-11T07:43:22.504Z,32.04
2019-05-11T07:44:35.032Z,31.85
2019-05-11T07:45:23.544Z,32.45
2019-05-11T07:46:22.476Z,32.92
2019-05-11T07:47:22.459Z,33.20
2019-05-11T07:48:22.447Z,33.61
2019-05-11T07:49:23.606Z,33.92
2019-05-11T07:50:22.432Z,33.32
2019-05-11T07:51:22.660Z,33.65
2019-05-11T07:52:22.428Z,34.05
2019-05-11T07:53:22.449Z,33.77
2019-05-11T07:54:22.397Z,34.11
2019-05-11T07:55:22.386Z,34.27
2019-05-11T07:56:22.366Z,34.78
2019-05-11T07:57:22.383Z,35.23
2019-05-11T07:58:22.354Z,35.48
2019-05-11T07:59:22.355Z,35.55
2019-05-11T08:00:22.319Z,35.70
2019-05-11T08:01:22.322Z,35.11
2019-05-11T08:02:22.302Z,33.71
2019-05-11T08:03:22.310Z,32.51
2019-05-11T08:04:22.289Z,31.97
2019-05-11T08:05:22.281Z,31.92
2019-05-11T08:06:22.262Z,33.00
2019-05-11T08:07:22.249Z,33.92
2019-05-11T08:08:25.135Z,34.81
2019-05-11T08:09:22.270Z,35.95
2019-05-11T08:10:22.227Z,36.65
2019-05-11T08:11:22.216Z,36.73
2019-05-11T08:12:23.088Z,36.45
2019-05-11T08:13:22.255Z,36.20
2019-05-11T08:14:22.214Z,36.58
2019-05-11T08:15:22.177Z,37.21
2019-05-11T08:16:22.280Z,36.64
2019-05-11T08:17:22.149Z,36.09
2019-05-11T08:18:22.194Z,35.95
2019-05-11T08:19:22.134Z,34.24
2019-05-11T08:20:22.148Z,32.01
2019-05-11T08:21:22.109Z,32.09
2019-05-11T08:22:23.018Z,32.83
2019-05-11T08:23:22.391Z,33.92
2019-05-11T08:24:22.074Z,35.30
2019-05-11T08:25:22.100Z,36.00
2019-05-11T08:26:22.059Z,37.28
2019-05-11T08:27:22.040Z,36.80
2019-05-11T08:28:22.047Z,35.97
2019-05-11T08:29:22.091Z,34.67
2019-05-11T08:30:22.052Z,34.35
2019-05-11T08:31:22.003Z,35.00
2019-05-11T08:32:22.001Z,36.07
2019-05-11T08:33:21.986Z,34.33
2019-05-11T08:34:22.017Z,34.62
2019-05-11T08:35:22.030Z,35.63
2019-05-11T08:36:21.951Z,36.01
2019-05-11T08:37:21.934Z,36.58
2019-05-11T08:38:21.954Z,37.01
2019-05-11T08:39:21.959Z,36.39
2019-05-11T08:40:21.922Z,36.28
2019-05-11T08:41:21.896Z,35.80
2019-05-11T08:42:21.891Z,36.42
2019-05-11T08:43:21.872Z,36.30
2019-05-11T08:44:21.885Z,36.05
2019-05-11T08:45:24.670Z,36.47
2019-05-11T08:46:21.834Z,36.95
2019-05-11T08:47:21.900Z,37.53
2019-05-11T08:48:21.830Z,37.30
2019-05-11T08:49:21.862Z,36.83
2019-05-11T08:50:21.825Z,36.27
2019-05-11T08:51:21.817Z,35.22
2019-05-11T08:52:21.815Z,35.88
2019-05-11T08:53:21.770Z,36.95
2019-05-11T08:54:21.753Z,37.51
2019-05-11T08:55:21.825Z,37.42
2019-05-11T08:56:21.745Z,36.64
2019-05-11T08:57:21.757Z,36.95
2019-05-11T08:58:21.798Z,36.79
2019-05-11T08:59:21.734Z,35.97
2019-05-11T09:00:21.742Z,35.89
2019-05-11T09:01:22.310Z,34.85
2019-05-11T09:02:21.684Z,32.73
2019-05-11T09:03:21.893Z,29.63
2019-05-11T09:04:21.651Z,27.75
2019-05-11T09:05:21.651Z,27.75
2019-05-11T09:06:21.645Z,27.03
2019-05-11T09:07:21.643Z,26.48
2019-05-11T09:08:21.632Z,26.59
2019-05-11T09:09:21.619Z,26.47
2019-05-11T09:10:21.590Z,26.28
2019-05-11T09:11:21.584Z,25.91
2019-05-11T09:12:21.581Z,25.70
2019-05-11T09:13:21.586Z,25.80
2019-05-11T09:14:21.560Z,27.02
2019-05-11T09:15:33.745Z,27.17
2019-05-11T09:16:22.573Z,26.15
2019-05-11T09:17:21.519Z,25.60
2019-05-11T09:18:22.409Z,25.16
2019-05-11T09:19:21.531Z,24.61
2019-05-11T09:20:21.491Z,24.23
2019-05-11T09:21:21.496Z,23.83
2019-05-11T09:22:21.490Z,23.77
2019-05-11T09:23:33.541Z,23.96
2019-05-11T09:24:22.451Z,23.84
2019-05-11T09:25:21.433Z,23.44
2019-05-11T09:26:21.438Z,23.24
2019-05-11T09:27:21.429Z,23.36
2019-05-11T09:28:21.406Z,23.87
2019-05-11T09:29:21.421Z,24.68
2019-05-11T09:30:21.385Z,25.40
2019-05-11T09:31:21.369Z,26.40
2019-05-11T09:32:21.379Z,27.33
2019-05-11T09:33:21.375Z,28.10
2019-05-11T09:34:21.342Z,28.78
2019-05-11T09:35:21.347Z,28.75
2019-05-11T09:36:21.352Z,28.45
2019-05-11T09:37:21.308Z,27.37
2019-05-11T09:38:21.316Z,26.44
2019-05-11T09:39:21.286Z,26.51
2019-05-11T09:40:21.284Z,26.22
2019-05-11T09:41:21.262Z,26.15
2019-05-11T09:42:21.258Z,26.15
2019-05-11T09:43:21.251Z,26.38
2019-05-11T09:44:21.255Z,26.18
2019-05-11T09:45:21.266Z,25.31
2019-05-11T09:46:21.242Z,25.13
2019-05-11T09:47:21.231Z,24.89
2019-05-11T09:48:21.206Z,24.30
2019-05-11T09:49:21.187Z,23.84
2019-05-11T09:50:21.202Z,23.34
2019-05-11T09:51:21.161Z,23.02
2019-05-11T09:52:21.152Z,22.88
2019-05-11T09:53:21.133Z,22.88
2019-05-11T09:54:21.155Z,23.08
2019-05-11T09:55:21.119Z,23.09
2019-05-11T09:56:21.283Z,22.96
2019-05-11T09:57:21.095Z,22.84
2019-05-11T09:58:21.083Z,23.18
2019-05-11T09:59:21.070Z,23.62
2019-05-11T10:00:21.067Z,23.41
2019-05-11T10:01:29.601Z,23.08
2019-05-11T10:02:21.308Z,22.96
2019-05-11T10:03:21.036Z,23.06
2019-05-11T10:04:21.008Z,23.08
2019-05-11T10:05:21.013Z,23.06
2019-05-11T10:06:20.990Z,22.94
2019-05-11T10:07:20.995Z,22.85
2019-05-11T10:08:20.998Z,22.72
2019-05-11T10:09:20.974Z,22.30
2019-05-11T10:10:20.949Z,22.13
2019-05-11T10:11:20.970Z,22.10
2019-05-11T10:12:20.939Z,22.00
2019-05-11T10:13:20.956Z,22.11
2019-05-11T10:14:21.053Z,22.11
2019-05-11T10:15:20.940Z,21.88
2019-05-11T10:16:20.893Z,21.45
2019-05-11T10:17:20.881Z,20.80
2019-05-11T10:18:24.097Z,20.70
2019-05-11T10:19:20.886Z,20.58
2019-05-11T10:20:20.850Z,20.48
2019-05-11T10:21:20.954Z,20.65
2019-05-11T10:22:21.067Z,20.85
2019-05-11T10:23:21.437Z,21.00
2019-05-11T10:24:20.799Z,20.96
2019-05-11T10:25:20.811Z,20.90
2019-05-11T10:26:20.823Z,20.58
2019-05-11T10:27:20.788Z,20.32
2019-05-11T10:28:20.782Z,20.22
2019-05-11T10:29:20.753Z,20.22
2019-05-11T10:30:20.735Z,20.26
2019-05-11T10:31:20.724Z,20.14
2019-05-11T10:32:20.718Z,20.21
2019-05-11T10:33:20.701Z,20.16
2019-05-11T10:34:20.729Z,20.14
2019-05-11T10:35:20.692Z,20.13
2019-05-11T10:36:20.665Z,19.64
2019-05-11T10:37:20.691Z,19.63
2019-05-11T10:38:20.653Z,19.44
2019-05-11T10:39:20.630Z,19.31
2019-05-11T10:40:20.656Z,19.34
2019-05-11T10:41:20.631Z,19.47
2019-05-11T10:42:20.636Z,19.59
2019-05-11T10:43:20.598Z,19.63
2019-05-11T10:44:20.588Z,19.59
2019-05-11T10:45:20.591Z,19.70
2019-05-11T10:46:23.482Z,19.63
2019-05-11T10:47:20.549Z,19.66
2019-05-11T10:48:20.550Z,19.71
2019-05-11T10:49:20.524Z,19.95
2019-05-11T10:50:20.531Z,20.21
2019-05-11T10:51:20.537Z,20.31
2019-05-11T10:52:20.497Z,20.58
2019-05-11T10:53:20.479Z,20.48
2019-05-11T10:54:20.468Z,20.63
2019-05-11T10:55:20.458Z,20.55
2019-05-11T10:56:20.467Z,20.48
2019-05-11T10:57:20.668Z,20.50
2019-05-11T10:58:20.441Z,20.77
2019-05-11T10:59:20.421Z,20.90
2019-05-11T11:00:20.400Z,20.92
2019-05-11T11:01:20.422Z,20.97
2019-05-11T11:02:20.380Z,21.07
2019-05-11T11:03:20.385Z,21.05
2019-05-11T11:04:20.363Z,20.92
2019-05-11T11:05:20.370Z,20.92
2019-05-11T11:06:20.364Z,20.80
2019-05-11T11:07:20.339Z,20.81
2019-05-11T11:08:20.321Z,20.90
2019-05-11T11:09:20.311Z,21.00
2019-05-11T11:10:20.303Z,20.81
2019-05-11T11:11:20.316Z,20.82
2019-05-11T11:12:20.308Z,20.81
2019-05-11T11:13:20.266Z,20.88
2019-05-11T11:14:20.257Z,20.93
2019-05-11T11:15:20.249Z,20.69
2019-05-11T11:16:35.739Z,20.55
2019-05-11T11:17:21.236Z,20.80
2019-05-11T11:18:20.218Z,21.03
2019-05-11T11:19:20.206Z,21.32
2019-05-11T11:20:20.185Z,21.36
2019-05-11T11:21:22.958Z,21.46
2019-05-11T11:22:35.948Z,21.17
2019-05-11T11:23:21.162Z,20.90
2019-05-11T11:24:20.165Z,20.58
2019-05-11T11:25:20.139Z,20.63
2019-05-11T11:26:20.147Z,20.67
2019-05-11T11:27:20.132Z,21.07
2019-05-11T11:28:20.109Z,21.06
2019-05-11T11:29:20.129Z,20.81
2019-05-11T11:30:20.081Z,20.72
2019-05-11T11:31:20.077Z,20.29
2019-05-11T11:32:20.064Z,20.44
2019-05-11T11:33:20.052Z,20.59
2019-05-11T11:34:20.033Z,20.66
2019-05-11T11:35:20.045Z,20.78
2019-05-11T11:36:20.014Z,20.66
2019-05-11T11:37:20.009Z,20.66
2019-05-11T11:38:20.071Z,20.78
2019-05-11T11:39:19.991Z,20.66
2019-05-11T11:40:19.994Z,20.58
2019-05-11T11:41:19.956Z,20.70
2019-05-11T11:42:19.962Z,20.69
2019-05-11T11:43:19.928Z,20.72
2019-05-11T11:44:19.929Z,20.69
2019-05-11T11:45:19.951Z,20.56
2019-05-11T11:46:19.914Z,20.10
2019-05-11T11:47:21.774Z,20.00
2019-05-11T11:48:19.881Z,19.88
2019-05-11T11:49:19.865Z,19.73
2019-05-11T11:50:19.872Z,19.40
2019-05-11T11:51:19.837Z,18.84
2019-05-11T11:52:19.826Z,18.38
2019-05-11T11:53:19.829Z,18.18
2019-05-11T11:54:19.809Z,18.31
2019-05-11T11:55:20.077Z,18.35
2019-05-11T11:56:19.796Z,18.44
2019-05-11T11:57:19.783Z,18.28
2019-05-11T11:58:23.697Z,18.23
2019-05-11T11:59:19.755Z,18.29
2019-05-11T12:00:19.741Z,18.35
2019-05-11T12:01:19.798Z,18.44
2019-05-11T12:02:19.723Z,18.45
2019-05-11T12:03:19.731Z,18.62
2019-05-11T12:04:19.713Z,18.65
2019-05-11T12:05:19.695Z,18.68
2019-05-11T12:06:19.688Z,18.74
2019-05-11T12:07:19.686Z,18.65
2019-05-11T12:08:19.669Z,18.40
2019-05-11T12:09:19.643Z,18.43
2019-05-11T12:10:19.640Z,18.37
2019-05-11T12:11:19.632Z,18.20
2019-05-11T12:12:19.607Z,18.18
2019-05-11T12:13:19.617Z,18.28
2019-05-11T12:14:19.598Z,18.35
2019-05-11T12:15:19.571Z,18.35
2019-05-11T12:16:19.566Z,18.35
2019-05-11T12:17:19.568Z,18.29
2019-05-11T12:18:19.561Z,18.13
2019-05-11T12:19:19.565Z,17.95
2019-05-11T12:20:19.524Z,17.94
2019-05-11T12:21:19.526Z,17.94
2019-05-11T12:22:19.515Z,17.94
2019-05-11T12:23:19.493Z,17.95
2019-05-11T12:24:19.496Z,17.86
2019-05-11T12:25:19.677Z,17.74
2019-05-11T12:26:19.458Z,17.80
2019-05-11T12:27:19.472Z,17.80
2019-05-11T12:28:19.452Z,17.68
2019-05-11T12:29:19.423Z,17.79
2019-05-11T12:30:19.433Z,17.67
2019-05-11T12:31:19.400Z,17.57
2019-05-11T12:32:19.397Z,17.59
2019-05-11T12:33:19.383Z,17.56
2019-05-11T12:34:19.383Z,17.48
2019-05-11T12:35:19.402Z,17.59
2019-05-11T12:36:19.345Z,17.67
2019-05-11T12:37:22.017Z,17.79
2019-05-11T12:38:19.338Z,17.86
2019-05-11T12:39:19.356Z,17.82
2019-05-11T12:40:19.305Z,17.82
2019-05-11T12:41:19.336Z,17.94
2019-05-11T12:42:19.278Z,17.98
2019-05-11T12:43:22.445Z,17.89
2019-05-11T12:44:19.276Z,17.92
2019-05-11T12:45:19.280Z,17.95
2019-05-11T12:46:19.247Z,18.01
2019-05-11T12:47:24.799Z,17.87
2019-05-11T12:48:20.228Z,17.90
2019-05-11T12:49:19.220Z,17.92
2019-05-11T12:50:19.203Z,17.89
2019-05-11T12:51:19.222Z,17.90
2019-05-11T12:52:19.258Z,17.85
2019-05-11T12:53:19.164Z,17.74
2019-05-11T12:54:19.180Z,17.60
2019-05-11T12:55:19.144Z,17.60
2019-05-11T12:56:19.256Z,17.76
2019-05-11T12:57:19.134Z,17.87